Terminal Aerodrome Forecast
Issued by NWS Louisville, KY

Home | Current Version | Previous Version | Text Only | Print | Product List | Glossary On
Versions: 1 2 3 4 5 6 7 8 9 10 11 12 13
000
FTUS43 KLMK 310520
TAFBWG
TAF
KBWG 310520Z 3106/0106 00000KT P6SM SCT100
     FM310900 00000KT 3SM BR FEW100
      TEMPO 3109/3112 1SM BR
     FM311300 27004KT P6SM SCT035
     FM010300 00000KT P6SM FEW250=

USA.gov is the U.S. government's official web portal to all federal, state and local government web resources and services.